NCAR-RAP Real-Time Weather Data

Output produced by METARs form (10 April 2020  07:26 UTC)
found at http://weather.rap.ucar.edu/surface/
 
KHVR 100653Z AUTO 18003KT 10SM CLR 01/M04 A2985 RMK AO2 SLP125 T00061039 401331078
KHVR 100553Z AUTO 00000KT 10SM CLR 02/M04 A2985 RMK AO2 SLP125 T00221039 10128 20022 58016
KHVR 100453Z AUTO 00000KT 10SM CLR 03/M04 A2987 RMK AO2 SLP131 T00331044
KHVR 100353Z AUTO 09003KT 10SM CLR 03/M04 A2989 RMK AO2 SLP143 T00331039
KHVR 100253Z AUTO 10007KT 10SM CLR 05/M04 A2990 RMK AO2 SLP148 T00501039 56011
KHVR 100153Z AUTO 09006KT 10SM CLR 09/M04 A2991 RMK AO2 SLP148 T00941039
KHVR 100053Z AUTO 00000KT 10SM CLR 13/M06 A2991 RMK AO2 SLP149 T01281061
KHVR 092353Z AUTO 00000KT 10SM CLR 12/M08 A2994 RMK AO2 SLP158 T01221083 10133 20061 56031
KHVR 092253Z AUTO 00000KT 10SM CLR 13/M09 A2996 RMK AO2 SLP164 T01281089
KHVR 092153Z AUTO 32004KT 10SM CLR 12/M09 A3000 RMK AO2 SLP178 T01221094
KHVR 092053Z AUTO VRB05KT 10SM CLR 11/M11 A3004 RMK AO2 SLP194 T01111111 56035
KHVR 091953Z AUTO 03005KT 10SM CLR 10/M11 A3007 RMK AO2 SLP204 T01001111
KHVR 091853Z AUTO 07008KT 10SM CLR 08/M12 A3011 RMK AO2 SLP218 T00831122 PWINO $
KHVR 091753Z AUTO 07008KT 10SM CLR 06/M11 A3015 RMK AO2 SLP230 T00611106 10067 21078 58027 PWINO $
KHVR 091653Z AUTO 04006KT 10SM CLR 04/M12 A3019 RMK AO2 SLP246 T00441117 PWINO $
KHVR 091553Z AUTO 07005KT 10SM CLR 02/M07 A3021 RMK AO2 SLP254 T00171072
KHVR 091453Z AUTO 10003KT 10SM CLR M02/M07 A3024 RMK AO2 SLP264 T10171067 58009
KHVR 091353Z AUTO 05006KT 10SM CLR M04/M08 A3024 RMK AO2 SLP267 T10391078
KHVR 091253Z AUTO 00000KT 10SM CLR M06/M09 A3026 RMK AO2 SLP276 T10611089
KHVR 091153Z AUTO 00000KT 10SM CLR M07/M10 A3026 RMK AO2 SLP275 T10671100 11006 21072 58007
KHVR 091053Z AUTO 06003KT 10SM CLR M06/M10 A3027 RMK AO2 SLP276 T10611100
KHVR 090953Z AUTO 12003KT 10SM CLR M07/M10 A3028 RMK AO2 SLP280 T10671100